Time;durP1;ratioP1;P1;durP2;ratioP2;P2;SDS_P1;SDS_P2;PMS_P1;PMS_P2;Temp;Humidity;BMP_temperature;BMP_pressure;BME280_temperature;BME280_humidity;BME280_pressure;Samples;Min_cycle;Max_cycle;Signal;HPM_P1;HPM_P2
2022/04/30 00:00:32;;;;;;;7.60;5.10;;;;;;;;;;5079129;28;20284;-77
2022/04/30 00:03:01;;;;;;;8.00;4.77;;;;;;;;;;5075018;28;20257;-76
2022/04/30 00:05:30;;;;;;;7.43;5.80;;;;;;;;;;5074230;28;20256;-79
2022/04/30 00:07:58;;;;;;;7.67;5.30;;;;;;;;;;5076855;28;20229;-77
2022/04/30 00:10:27;;;;;;;6.37;5.67;;;;;;;;;;5073393;28;20688;-77
2022/04/30 00:12:56;;;;;;;6.57;5.20;;;;;;;;;;5073382;28;20567;-76
2022/04/30 00:15:24;;;;;;;5.97;5.20;;;;;;;;;;5075181;28;20225;-77
2022/04/30 00:17:53;;;;;;;8.07;7.10;;;;;;;;;;5077067;28;20715;-77
2022/04/30 00:20:21;;;;;;;11.30;8.50;;;;;;;;;;5076311;28;20203;-79
2022/04/30 00:22:49;;;;;;;13.77;10.97;;;;;;;;;;5078159;28;20562;-76
2022/04/30 00:25:18;;;;;;;14.23;9.97;;;;;;;;;;5070430;28;20266;-79
2022/04/30 00:27:46;;;;;;;14.20;10.90;;;;;;;;;;5073407;28;20617;-77
2022/04/30 00:30:16;;;;;;;13.93;10.53;;;;;;;;;;5072568;28;20241;-77
2022/04/30 00:32:44;;;;;;;12.60;10.27;;;;;;;;;;5073016;28;20234;-79
2022/04/30 00:35:13;;;;;;;17.50;11.00;;;;;;;;;;5068543;28;20253;-79
2022/04/30 00:37:41;;;;;;;11.50;9.43;;;;;;;;;;5070191;28;20229;-78
2022/04/30 00:40:10;;;;;;;12.90;8.50;;;;;;;;;;5070351;28;20233;-78
2022/04/30 00:42:38;;;;;;;11.37;9.10;;;;;;;;;;5072825;28;20205;-79
2022/04/30 00:45:06;;;;;;;9.67;8.57;;;;;;;;;;5073507;28;20616;-79
2022/04/30 00:47:36;;;;;;;13.27;7.93;;;;;;;;;;5071212;28;20199;-79
2022/04/30 00:50:04;;;;;;;12.07;6.97;;;;;;;;;;5067257;28;20262;-79
2022/04/30 00:52:33;;;;;;;9.03;6.93;;;;;;;;;;5071201;28;20281;-79
2022/04/30 00:55:03;;;;;;;10.57;6.73;;;;;;;;;;5069100;28;20277;-79
2022/04/30 00:57:32;;;;;;;9.70;6.77;;;;;;;;;;5069829;28;20266;-79
2022/04/30 01:00:01;;;;;;;7.03;6.33;;;;;;;;;;5070798;28;20232;-77
2022/04/30 01:02:30;;;;;;;8.90;6.27;;;;;;;;;;5070383;28;20241;-79
2022/04/30 01:05:01;;;;;;;8.00;6.23;;;;;;;;;;5068144;28;20206;-78
2022/04/30 01:07:29;;;;;;;7.30;5.80;;;;;;;;;;5067699;28;20251;-76
2022/04/30 01:09:57;;;;;;;6.43;5.40;;;;;;;;;;5071567;28;20215;-77
2022/04/30 01:12:27;;;;;;;7.97;5.60;;;;;;;;;;5075151;28;20202;-76
2022/04/30 01:14:55;;;;;;;6.40;5.57;;;;;;;;;;5072473;28;20636;-77
2022/04/30 01:17:23;;;;;;;7.37;5.53;;;;;;;;;;5074624;28;20253;-77
2022/04/30 01:19:51;;;;;;;6.13;5.37;;;;;;;;;;5066738;28;20207;-77
2022/04/30 01:22:25;;;;;;;9.93;5.57;;;;;;;;;;5074445;28;20325;-78
2022/04/30 01:24:56;;;;;;;12.90;5.83;;;;;;;;;;5072013;28;20244;-79
2022/04/30 01:27:26;;;;;;;7.77;5.33;;;;;;;;;;5068930;28;20218;-79
2022/04/30 01:29:54;;;;;;;7.47;5.87;;;;;;;;;;5070421;28;20202;-78
2022/04/30 01:38:03;;;;;;;7.47;5.80;;;;;;;;;;5073933;28;20222;-78
2022/04/30 01:40:33;;;;;;;9.10;5.40;;;;;;;;;;5073782;28;20564;-78
2022/04/30 01:43:02;;;;;;;8.20;5.90;;;;;;;;;;5071856;28;20203;-79
2022/04/30 01:45:31;;;;;;;8.47;5.10;;;;;;;;;;5070492;28;20254;-78
2022/04/30 01:48:00;;;;;;;7.23;5.60;;;;;;;;;;5074952;28;20225;-79
2022/04/30 01:50:28;;;;;;;5.80;5.20;;;;;;;;;;5077797;28;20202;-77
2022/04/30 01:52:56;;;;;;;9.50;5.63;;;;;;;;;;5073909;28;20230;-79
2022/04/30 01:55:24;;;;;;;7.00;5.13;;;;;;;;;;5077684;28;20257;-78
2022/04/30 01:57:54;;;;;;;6.77;5.27;;;;;;;;;;5068050;28;20226;-79
2022/04/30 02:00:22;;;;;;;11.40;5.90;;;;;;;;;;5072295;28;20692;-79
2022/04/30 02:02:51;;;;;;;7.03;5.27;;;;;;;;;;5072289;28;20257;-79
2022/04/30 02:05:20;;;;;;;9.60;5.60;;;;;;;;;;5071673;28;20207;-78
2022/04/30 02:07:50;;;;;;;7.13;6.43;;;;;;;;;;5067379;28;20615;-78
2022/04/30 02:10:19;;;;;;;11.50;6.53;;;;;;;;;;5066632;28;20211;-78
2022/04/30 02:12:48;;;;;;;7.07;5.60;;;;;;;;;;5075568;28;20637;-79
2022/04/30 02:15:18;;;;;;;6.20;5.20;;;;;;;;;;5076320;28;20323;-79
2022/04/30 02:17:47;;;;;;;7.50;5.93;;;;;;;;;;5069451;28;20297;-79
2022/04/30 02:20:24;;;;;;;9.03;5.97;;;;;;;;;;5072095;28;20198;-78
2022/04/30 02:22:54;;;;;;;8.07;5.50;;;;;;;;;;5075337;28;20198;-79
2022/04/30 02:25:22;;;;;;;6.43;5.77;;;;;;;;;;5072976;28;20258;-78
2022/04/30 02:27:51;;;;;;;7.73;6.10;;;;;;;;;;5077215;28;20226;-79
2022/04/30 02:30:21;;;;;;;6.40;4.93;;;;;;;;;;5065401;28;20234;-79
2022/04/30 02:32:50;;;;;;;8.47;5.13;;;;;;;;;;5068109;28;20281;-78
2022/04/30 02:35:20;;;;;;;8.50;5.70;;;;;;;;;;5074971;28;20270;-79
2022/04/30 02:37:49;;;;;;;6.03;5.00;;;;;;;;;;5076625;28;20250;-78
2022/04/30 02:40:18;;;;;;;6.43;5.30;;;;;;;;;;5074707;28;20202;-79
2022/04/30 02:42:46;;;;;;;7.90;5.03;;;;;;;;;;5076952;28;20691;-76
2022/04/30 02:45:14;;;;;;;6.70;4.97;;;;;;;;;;5075874;28;20634;-77
2022/04/30 02:47:45;;;;;;;8.67;5.10;;;;;;;;;;5069201;28;20237;-78
2022/04/30 02:50:14;;;;;;;9.07;5.00;;;;;;;;;;5076493;28;20230;-76
2022/04/30 02:52:42;;;;;;;6.57;4.53;;;;;;;;;;5075079;28;20302;-77
2022/04/30 02:55:11;;;;;;;6.03;4.10;;;;;;;;;;5071756;28;20245;-78
2022/04/30 02:59:53;;;;;;;5.70;4.17;;;;;;;;;;5075655;28;20258;-78
2022/04/30 03:00:28;;;;;;;5.03;4.53;;;;;;;;;;5065201;28;20229;-77
2022/04/30 03:02:57;;;;;;;8.57;4.03;;;;;;;;;;5073617;28;20276;-76
2022/04/30 03:05:26;;;;;;;6.37;5.13;;;;;;;;;;5064949;28;20230;-78
2022/04/30 03:07:54;;;;;;;9.17;4.53;;;;;;;;;;5067514;28;20605;-78
2022/04/30 03:10:22;;;;;;;4.93;4.43;;;;;;;;;;5070187;28;20285;-74
2022/04/30 03:12:50;;;;;;;9.10;4.80;;;;;;;;;;5067337;28;20349;-74
2022/04/30 03:15:21;;;;;;;5.07;4.50;;;;;;;;;;5059427;28;20211;-73
2022/04/30 03:23:22;;;;;;;4.73;3.90;;;;;;;;;;5066139;28;20209;-73
2022/04/30 03:25:50;;;;;;;5.73;4.10;;;;;;;;;;5068558;28;20261;-73
2022/04/30 03:28:18;;;;;;;8.53;4.33;;;;;;;;;;5067663;28;20277;-72
2022/04/30 03:30:46;;;;;;;7.67;4.17;;;;;;;;;;5069925;28;20225;-72
2022/04/30 03:33:14;;;;;;;4.30;3.77;;;;;;;;;;5069928;28;20258;-74
2022/04/30 03:35:43;;;;;;;5.43;4.40;;;;;;;;;;5068276;28;20744;-74
2022/04/30 03:38:12;;;;;;;7.47;4.03;;;;;;;;;;5067697;28;20226;-73
2022/04/30 03:40:40;;;;;;;9.40;5.23;;;;;;;;;;5069904;28;20260;-74
2022/04/30 03:43:08;;;;;;;6.23;4.33;;;;;;;;;;5065638;28;20654;-74
2022/04/30 03:45:37;;;;;;;5.73;4.37;;;;;;;;;;5067567;28;20222;-73
2022/04/30 03:48:05;;;;;;;5.90;4.23;;;;;;;;;;5072367;28;20666;-74
2022/04/30 03:50:33;;;;;;;5.90;4.47;;;;;;;;;;5072745;28;20198;-73
2022/04/30 03:53:03;;;;;;;4.93;3.87;;;;;;;;;;5067625;28;20202;-73
2022/04/30 03:55:31;;;;;;;6.67;4.70;;;;;;;;;;5067520;28;20250;-73
2022/04/30 03:57:59;;;;;;;7.43;4.47;;;;;;;;;;5069940;28;20225;-73
2022/04/30 04:00:27;;;;;;;5.67;4.73;;;;;;;;;;5066685;28;20233;-74
2022/04/30 04:02:57;;;;;;;6.60;4.67;;;;;;;;;;5067658;28;20263;-73
2022/04/30 04:05:26;;;;;;;7.00;4.17;;;;;;;;;;5072801;28;20811;-74
2022/04/30 04:07:54;;;;;;;6.03;4.87;;;;;;;;;;5076663;28;20220;-76
2022/04/30 04:10:23;;;;;;;4.57;4.00;;;;;;;;;;5074065;28;20640;-73
2022/04/30 04:12:52;;;;;;;5.30;4.57;;;;;;;;;;5073038;28;20294;-73
2022/04/30 04:18:06;;;;;;;5.20;4.30;;;;;;;;;;5067986;28;20222;-74
2022/04/30 04:20:34;;;;;;;6.13;4.60;;;;;;;;;;5069516;28;20289;-75
2022/04/30 04:23:02;;;;;;;6.67;4.67;;;;;;;;;;5070398;28;20271;-74
2022/04/30 04:28:17;;;;;;;5.03;4.13;;;;;;;;;;5074407;28;20827;-75
2022/04/30 04:30:45;;;;;;;7.00;3.80;;;;;;;;;;5070858;28;20230;-74
2022/04/30 04:33:13;;;;;;;5.50;4.03;;;;;;;;;;5072981;28;20658;-75
2022/04/30 04:35:41;;;;;;;5.43;4.33;;;;;;;;;;5070119;28;20254;-76
2022/04/30 04:38:09;;;;;;;5.87;5.03;;;;;;;;;;5072318;28;20250;-76
2022/04/30 04:40:39;;;;;;;12.50;5.03;;;;;;;;;;5070794;28;20203;-76
2022/04/30 04:43:07;;;;;;;7.07;4.73;;;;;;;;;;5072159;28;20222;-76
2022/04/30 04:45:39;;;;;;;5.17;4.63;;;;;;;;;;5074892;28;20740;-74
2022/04/30 04:48:08;;;;;;;6.97;4.13;;;;;;;;;;5069180;28;20190;-73
2022/04/30 04:50:37;;;;;;;5.20;4.67;;;;;;;;;;5072533;28;20285;-73
2022/04/30 04:53:05;;;;;;;8.33;4.47;;;;;;;;;;5069485;28;20253;-74
2022/04/30 04:55:33;;;;;;;5.60;4.50;;;;;;;;;;5072440;28;20262;-76
2022/04/30 04:58:03;;;;;;;4.73;4.07;;;;;;;;;;5069765;28;20273;-73
2022/04/30 05:00:33;;;;;;;5.30;4.57;;;;;;;;;;5071208;28;20260;-74
2022/04/30 05:03:01;;;;;;;6.03;4.50;;;;;;;;;;5067361;28;20257;-75
2022/04/30 05:05:31;;;;;;;4.80;4.30;;;;;;;;;;5078006;28;20249;-74
2022/04/30 05:07:59;;;;;;;6.10;4.40;;;;;;;;;;5073706;28;20195;-74
2022/04/30 05:10:27;;;;;;;4.53;4.13;;;;;;;;;;5075470;28;20269;-74
2022/04/30 05:12:54;;;;;;;5.90;4.60;;;;;;;;;;5077930;28;20257;-74
2022/04/30 05:15:24;;;;;;;6.53;3.87;;;;;;;;;;5076508;28;20258;-73
2022/04/30 05:17:52;;;;;;;4.33;3.93;;;;;;;;;;5077948;28;20256;-74
2022/04/30 05:20:20;;;;;;;6.27;3.97;;;;;;;;;;5072142;28;20202;-74
2022/04/30 05:23:08;;;;;;;7.60;4.93;;;;;;;;;;5068311;28;20201;-74
2022/04/30 05:25:39;;;;;;;7.90;4.43;;;;;;;;;;5074059;28;20256;-73
2022/04/30 05:28:07;;;;;;;5.57;4.27;;;;;;;;;;5077037;28;20234;-74
2022/04/30 05:30:37;;;;;;;6.13;3.73;;;;;;;;;;5073252;28;20234;-74
2022/04/30 05:33:05;;;;;;;8.43;4.10;;;;;;;;;;5064830;28;20226;-74
2022/04/30 05:35:33;;;;;;;6.20;3.60;;;;;;;;;;5073500;28;20753;-74
2022/04/30 05:38:01;;;;;;;3.80;3.40;;;;;;;;;;5069889;28;20318;-75
2022/04/30 05:40:29;;;;;;;4.40;3.60;;;;;;;;;;5073090;28;20213;-75
2022/04/30 05:42:57;;;;;;;6.83;4.07;;;;;;;;;;5073574;28;20242;-75
2022/04/30 05:45:25;;;;;;;4.77;3.53;;;;;;;;;;5075028;28;20260;-74
2022/04/30 05:47:55;;;;;;;4.33;3.80;;;;;;;;;;5066078;28;20278;-73
2022/04/30 05:50:23;;;;;;;3.83;3.40;;;;;;;;;;5075561;28;20230;-74
2022/04/30 05:52:51;;;;;;;4.90;4.40;;;;;;;;;;5073895;28;20241;-76
2022/04/30 05:55:19;;;;;;;5.33;4.10;;;;;;;;;;5074893;28;20233;-76
2022/04/30 05:57:47;;;;;;;4.83;4.33;;;;;;;;;;5071669;28;20258;-75
2022/04/30 06:00:15;;;;;;;6.13;4.13;;;;;;;;;;5068930;28;20700;-75
2022/04/30 06:02:43;;;;;;;5.70;3.97;;;;;;;;;;5063514;28;20310;-75
2022/04/30 06:05:13;;;;;;;4.17;3.70;;;;;;;;;;5076483;28;20202;-76
2022/04/30 06:07:41;;;;;;;5.47;3.80;;;;;;;;;;5077089;28;20237;-77
2022/04/30 06:10:10;;;;;;;7.43;3.90;;;;;;;;;;5072862;28;20234;-76
2022/04/30 06:12:38;;;;;;;3.97;3.50;;;;;;;;;;5073194;28;20226;-76
2022/04/30 06:15:07;;;;;;;4.17;3.80;;;;;;;;;;5070499;28;20245;-75
2022/04/30 06:17:35;;;;;;;3.83;3.53;;;;;;;;;;5071749;28;20277;-76
2022/04/30 06:20:03;;;;;;;4.20;3.70;;;;;;;;;;5070355;28;20198;-76
2022/04/30 06:22:34;;;;;;;3.90;3.50;;;;;;;;;;5069708;28;20252;-76
2022/04/30 06:25:02;;;;;;;5.00;3.40;;;;;;;;;;5068661;28;20196;-76
2022/04/30 06:27:30;;;;;;;3.50;3.20;;;;;;;;;;5071257;28;20634;-76
2022/04/30 06:29:59;;;;;;;5.47;3.73;;;;;;;;;;5068364;28;20219;-76
2022/04/30 06:32:27;;;;;;;7.60;4.33;;;;;;;;;;5070859;28;20198;-77
2022/04/30 06:34:54;;;;;;;4.83;4.33;;;;;;;;;;5068386;28;20294;-77
2022/04/30 06:37:23;;;;;;;5.90;4.87;;;;;;;;;;5068761;28;20645;-77
2022/04/30 06:39:53;;;;;;;6.40;3.67;;;;;;;;;;5069315;28;20253;-77
2022/04/30 06:42:21;;;;;;;5.20;4.70;;;;;;;;;;5071138;28;20230;-77
2022/04/30 06:44:51;;;;;;;6.73;4.60;;;;;;;;;;5071236;28;20230;-77
2022/04/30 06:47:21;;;;;;;6.83;4.97;;;;;;;;;;5070214;28;20251;-77
2022/04/30 06:49:50;;;;;;;8.30;4.83;;;;;;;;;;5073618;28;20234;-77
2022/04/30 06:52:18;;;;;;;7.03;6.33;;;;;;;;;;5068279;28;20234;-77
2022/04/30 06:57:33;;;;;;;7.87;7.07;;;;;;;;;;5070025;28;20226;-77
2022/04/30 07:01:25;;;;;;;8.80;7.07;;;;;;;;;;5070207;28;20257;-77
2022/04/30 07:02:55;;;;;;;8.80;7.03;;;;;;;;;;5068247;28;20309;-77
2022/04/30 07:05:23;;;;;;;8.33;7.50;;;;;;;;;;5072193;28;20226;-75
2022/04/30 07:07:51;;;;;;;8.47;6.50;;;;;;;;;;5070409;28;20237;-76
2022/04/30 07:10:19;;;;;;;11.93;7.33;;;;;;;;;;5070549;28;20640;-76
2022/04/30 07:12:49;;;;;;;10.03;7.80;;;;;;;;;;5075743;28;20285;-76
2022/04/30 07:15:17;;;;;;;10.83;7.53;;;;;;;;;;5072302;28;20209;-75
2022/04/30 07:17:46;;;;;;;8.80;7.90;;;;;;;;;;5071907;28;20627;-76
2022/04/30 07:20:14;;;;;;;8.93;8.03;;;;;;;;;;5071182;28;20321;-75
2022/04/30 07:22:42;;;;;;;10.73;7.73;;;;;;;;;;5072728;28;20194;-76
2022/04/30 07:25:10;;;;;;;8.60;7.60;;;;;;;;;;5073410;28;20224;-76
2022/04/30 07:27:38;;;;;;;11.53;8.30;;;;;;;;;;5073519;28;20242;-76
2022/04/30 07:30:08;;;;;;;9.43;7.70;;;;;;;;;;5068271;28;20235;-78
2022/04/30 07:32:39;;;;;;;7.27;6.43;;;;;;;;;;5073590;28;20582;-77
2022/04/30 07:35:08;;;;;;;8.47;7.57;;;;;;;;;;5074258;28;20262;-74
2022/04/30 07:37:36;;;;;;;7.60;6.70;;;;;;;;;;5074313;28;20202;-74
2022/04/30 07:40:05;;;;;;;12.40;8.37;;;;;;;;;;5077295;28;20305;-74
2022/04/30 07:42:32;;;;;;;10.47;7.53;;;;;;;;;;5078497;28;20240;-75
2022/04/30 07:45:00;;;;;;;7.60;6.00;;;;;;;;;;5075571;28;20240;-75
2022/04/30 07:47:30;;;;;;;8.43;6.67;;;;;;;;;;5068377;28;20854;-75
2022/04/30 07:49:58;;;;;;;7.60;6.63;;;;;;;;;;5072837;28;20281;-75
2022/04/30 07:52:26;;;;;;;9.73;7.30;;;;;;;;;;5071968;28;20624;-77
2022/04/30 07:54:54;;;;;;;11.80;6.57;;;;;;;;;;5072501;28;20234;-78
2022/04/30 07:57:22;;;;;;;9.53;7.50;;;;;;;;;;5072159;28;20249;-75
2022/04/30 07:59:50;;;;;;;7.50;6.10;;;;;;;;;;5072732;28;20283;-76
2022/04/30 08:02:18;;;;;;;6.77;5.23;;;;;;;;;;5072841;28;20261;-75
2022/04/30 08:04:48;;;;;;;6.93;5.37;;;;;;;;;;5074336;28;20224;-75
2022/04/30 08:07:16;;;;;;;7.83;5.40;;;;;;;;;;5069253;28;20253;-75
2022/04/30 08:09:44;;;;;;;4.73;3.90;;;;;;;;;;5073154;28;20225;-75
2022/04/30 08:12:13;;;;;;;5.40;4.17;;;;;;;;;;5071996;28;20227;-73
2022/04/30 08:14:41;;;;;;;7.73;4.40;;;;;;;;;;5073103;28;20194;-73
2022/04/30 08:17:09;;;;;;;6.00;3.63;;;;;;;;;;5075685;28;20226;-75
2022/04/30 08:19:37;;;;;;;6.47;3.50;;;;;;;;;;5066679;28;20278;-75
2022/04/30 08:22:13;;;;;;;4.53;3.50;;;;;;;;;;5071818;28;20630;-73
2022/04/30 08:24:42;;;;;;;4.43;3.73;;;;;;;;;;5071179;28;20225;-74
2022/04/30 08:27:11;;;;;;;33.53;8.37;;;;;;;;;;5075178;28;20305;-73
2022/04/30 08:29:39;;;;;;;5.50;3.43;;;;;;;;;;5073709;28;20195;-74
2022/04/30 08:32:07;;;;;;;6.30;3.93;;;;;;;;;;5073303;28;20238;-73
2022/04/30 08:34:35;;;;;;;4.83;3.10;;;;;;;;;;5070040;28;20233;-75
2022/04/30 08:37:04;;;;;;;6.07;3.30;;;;;;;;;;5070269;28;20755;-77
2022/04/30 08:39:34;;;;;;;3.83;3.20;;;;;;;;;;5075256;28;20669;-76
2022/04/30 08:42:02;;;;;;;5.97;3.40;;;;;;;;;;5075917;28;20237;-73
2022/04/30 08:44:30;;;;;;;3.53;3.10;;;;;;;;;;5074439;28;20206;-74
2022/04/30 08:46:58;;;;;;;3.93;3.60;;;;;;;;;;5072569;28;20225;-72
2022/04/30 08:49:26;;;;;;;4.43;3.03;;;;;;;;;;5072070;28;20203;-74
2022/04/30 08:51:55;;;;;;;3.13;2.70;;;;;;;;;;5072086;28;20198;-74
2022/04/30 08:54:24;;;;;;;4.83;3.17;;;;;;;;;;5073157;28;20211;-74
2022/04/30 08:56:54;;;;;;;6.13;4.43;;;;;;;;;;5074273;28;20735;-71
2022/04/30 08:59:23;;;;;;;4.53;3.30;;;;;;;;;;5069077;28;20762;-73
2022/04/30 09:01:52;;;;;;;4.03;3.60;;;;;;;;;;5073222;28;20206;-71
2022/04/30 09:04:20;;;;;;;6.67;4.03;;;;;;;;;;5071011;28;20210;-75
2022/04/30 09:06:50;;;;;;;7.77;4.00;;;;;;;;;;5074170;28;20246;-75
2022/04/30 09:09:25;;;;;;;6.63;3.80;;;;;;;;;;5071466;28;20741;-75
2022/04/30 09:11:56;;;;;;;7.50;3.90;;;;;;;;;;5069036;28;20225;-75
2022/04/30 09:14:25;;;;;;;7.63;4.03;;;;;;;;;;5067951;28;21131;-75
2022/04/30 09:17:03;;;;;;;7.47;4.17;;;;;;;;;;5070835;28;20257;-75
2022/04/30 09:19:31;;;;;;;6.37;4.03;;;;;;;;;;5065993;28;20255;-74
2022/04/30 09:21:59;;;;;;;7.60;3.77;;;;;;;;;;5070244;28;20226;-75
2022/04/30 09:24:27;;;;;;;4.80;4.23;;;;;;;;;;5069284;28;20234;-74
2022/04/30 09:27:03;;;;;;;5.83;4.00;;;;;;;;;;5070003;28;20268;-75
2022/04/30 09:29:31;;;;;;;4.90;3.77;;;;;;;;;;5068609;28;20293;-71
2022/04/30 09:31:59;;;;;;;4.63;4.17;;;;;;;;;;5070592;28;20267;-72
2022/04/30 09:37:45;;;;;;;5.37;3.50;;;;;;;;;;5073148;28;20708;-74
2022/04/30 09:40:23;;;;;;;6.50;3.40;;;;;;;;;;5071947;28;20290;-72
2022/04/30 09:42:52;;;;;;;5.40;3.87;;;;;;;;;;5073082;28;20206;-72
2022/04/30 09:45:27;;;;;;;4.63;3.30;;;;;;;;;;5069302;28;20567;-72
2022/04/30 09:47:55;;;;;;;3.93;3.23;;;;;;;;;;5067572;28;20206;-73
2022/04/30 09:55:57;;;;;;;3.90;3.50;;;;;;;;;;5071292;28;20219;-75
2022/04/30 09:58:27;;;;;;;7.80;3.90;;;;;;;;;;5073574;28;20260;-75
2022/04/30 10:00:56;;;;;;;5.77;3.53;;;;;;;;;;5069215;28;20249;-75
2022/04/30 10:03:26;;;;;;;5.30;3.43;;;;;;;;;;5070406;28;20595;-74
2022/04/30 10:05:58;;;;;;;4.43;3.60;;;;;;;;;;5068303;28;20542;-74
2022/04/30 10:08:27;;;;;;;3.87;3.27;;;;;;;;;;5072968;28;20230;-75
2022/04/30 10:11:02;;;;;;;5.37;3.80;;;;;;;;;;5068664;28;20282;-75
2022/04/30 10:13:34;;;;;;;5.50;2.90;;;;;;;;;;5069695;28;20284;-74
2022/04/30 10:16:02;;;;;;;5.63;3.23;;;;;;;;;;5069230;28;20334;-72
2022/04/30 10:18:34;;;;;;;4.40;3.30;;;;;;;;;;5068492;28;20199;-74
2022/04/30 10:21:06;;;;;;;5.67;3.60;;;;;;;;;;5072808;28;20249;-73
2022/04/30 10:23:34;;;;;;;3.60;3.00;;;;;;;;;;5068398;28;20297;-74
2022/04/30 10:26:07;;;;;;;3.33;3.03;;;;;;;;;;5070630;28;20222;-77
2022/04/30 10:28:36;;;;;;;4.50;3.37;;;;;;;;;;5073744;28;20202;-77
2022/04/30 10:31:04;;;;;;;5.30;3.70;;;;;;;;;;5068300;28;20651;-77
2022/04/30 10:33:33;;;;;;;3.73;3.30;;;;;;;;;;5073330;28;20225;-76
2022/04/30 10:36:06;;;;;;;4.33;2.93;;;;;;;;;;5070226;28;20218;-77
2022/04/30 10:38:34;;;;;;;3.83;3.50;;;;;;;;;;5069041;28;20202;-79
2022/04/30 10:41:03;;;;;;;3.17;2.87;;;;;;;;;;5071857;28;20277;-75
2022/04/30 10:43:34;;;;;;;2.90;2.60;;;;;;;;;;5067206;28;20609;-73
2022/04/30 10:46:05;;;;;;;5.00;3.40;;;;;;;;;;5067251;28;20222;-77
2022/04/30 10:48:34;;;;;;;3.80;3.37;;;;;;;;;;5066880;28;20256;-76
2022/04/30 10:51:04;;;;;;;4.80;3.70;;;;;;;;;;5071256;28;20627;-77
2022/04/30 10:53:33;;;;;;;3.87;3.43;;;;;;;;;;5070458;28;20670;-80
2022/04/30 10:56:01;;;;;;;3.47;2.77;;;;;;;;;;5072711;28;20261;-80
2022/04/30 10:58:30;;;;;;;5.27;3.00;;;;;;;;;;5068458;28;20238;-81
2022/04/30 11:00:58;;;;;;;4.13;3.10;;;;;;;;;;5067806;28;20309;-80
2022/04/30 11:03:28;;;;;;;3.40;3.10;;;;;;;;;;5067536;28;20261;-78
2022/04/30 11:05:56;;;;;;;4.20;3.37;;;;;;;;;;5069563;28;20218;-80
2022/04/30 11:08:24;;;;;;;3.10;2.80;;;;;;;;;;5066747;28;20234;-79
2022/04/30 11:10:53;;;;;;;4.13;3.57;;;;;;;;;;5065504;28;20263;-78
2022/04/30 11:13:21;;;;;;;3.60;3.30;;;;;;;;;;5065822;28;20664;-79
2022/04/30 11:15:49;;;;;;;3.37;3.07;;;;;;;;;;5070095;28;20218;-76
2022/04/30 11:18:20;;;;;;;4.43;3.37;;;;;;;;;;5066833;28;20225;-77
2022/04/30 11:20:50;;;;;;;8.50;3.43;;;;;;;;;;5067975;28;20280;-79
2022/04/30 11:23:21;;;;;;;3.23;3.03;;;;;;;;;;5064993;28;20222;-76
2022/04/30 11:25:49;;;;;;;3.20;2.90;;;;;;;;;;5070561;28;20249;-78
2022/04/30 11:28:17;;;;;;;3.97;3.57;;;;;;;;;;5066802;28;20266;-78
2022/04/30 11:30:46;;;;;;;3.80;3.10;;;;;;;;;;5067240;28;20277;-76
2022/04/30 11:33:14;;;;;;;4.03;3.10;;;;;;;;;;5065524;28;20289;-76
2022/04/30 11:35:42;;;;;;;4.30;3.57;;;;;;;;;;5066848;28;20226;-79
2022/04/30 11:38:12;;;;;;;3.57;3.23;;;;;;;;;;5067753;28;20207;-78
2022/04/30 11:40:41;;;;;;;5.57;3.20;;;;;;;;;;5067646;28;20256;-78
2022/04/30 11:43:09;;;;;;;4.67;4.00;;;;;;;;;;5067799;28;20199;-79
2022/04/30 11:45:43;;;;;;;5.87;3.20;;;;;;;;;;5067516;28;20319;-79
2022/04/30 11:48:11;;;;;;;2.80;2.60;;;;;;;;;;5073322;28;20249;-79
2022/04/30 11:50:40;;;;;;;4.80;2.77;;;;;;;;;;5070566;28;20230;-77
2022/04/30 11:53:08;;;;;;;3.37;3.07;;;;;;;;;;5071778;28;20249;-77
2022/04/30 11:55:40;;;;;;;5.17;3.10;;;;;;;;;;5070808;28;20265;-78
2022/04/30 11:58:07;;;;;;;6.47;4.10;;;;;;;;;;5071486;28;20282;-79
2022/04/30 12:00:55;;;;;;;3.13;2.83;;;;;;;;;;5065860;28;20222;-78
2022/04/30 12:03:26;;;;;;;3.47;3.23;;;;;;;;;;5066959;28;20725;-79
2022/04/30 12:05:54;;;;;;;7.73;3.80;;;;;;;;;;5069201;28;20677;-81
2022/04/30 12:08:27;;;;;;;4.00;3.23;;;;;;;;;;5062211;28;20230;-79
2022/04/30 12:10:57;;;;;;;2.87;2.63;;;;;;;;;;5065078;28;20278;-79
2022/04/30 12:13:26;;;;;;;3.50;2.97;;;;;;;;;;5066406;28;20202;-78
2022/04/30 12:16:03;;;;;;;3.87;3.47;;;;;;;;;;5066491;28;20249;-78
2022/04/30 12:26:58;;;;;;;4.50;3.17;;;;;;;;;;5058082;28;20262;-80
2022/04/30 12:29:26;;;;;;;3.90;3.00;;;;;;;;;;5068404;28;20211;-78
2022/04/30 12:31:54;;;;;;;6.00;3.40;;;;;;;;;;5072316;28;20222;-78
2022/04/30 12:34:25;;;;;;;6.80;3.90;;;;;;;;;;5068126;28;20238;-78
2022/04/30 12:36:54;;;;;;;4.13;3.67;;;;;;;;;;5071678;28;20702;-78
2022/04/30 12:39:23;;;;;;;4.57;3.13;;;;;;;;;;5067420;28;20206;-78
2022/04/30 12:41:51;;;;;;;4.83;3.30;;;;;;;;;;5074750;28;20285;-78
2022/04/30 12:44:20;;;;;;;5.10;3.60;;;;;;;;;;5074441;28;20628;-78
2022/04/30 12:46:49;;;;;;;3.67;3.37;;;;;;;;;;5072242;28;20253;-78
2022/04/30 12:49:18;;;;;;;4.53;3.20;;;;;;;;;;5074184;28;20206;-77
2022/04/30 12:51:46;;;;;;;3.70;3.40;;;;;;;;;;5070314;28;20191;-78
2022/04/30 12:54:16;;;;;;;3.73;2.80;;;;;;;;;;5067070;28;20225;-77
2022/04/30 12:56:46;;;;;;;3.93;3.00;;;;;;;;;;5069879;28;20257;-78
2022/04/30 12:59:14;;;;;;;5.30;3.23;;;;;;;;;;5068875;28;20248;-78
2022/04/30 13:01:44;;;;;;;5.53;3.43;;;;;;;;;;5074387;28;20667;-81
2022/04/30 13:04:12;;;;;;;3.53;3.20;;;;;;;;;;5068352;28;20212;-80
2022/04/30 13:06:41;;;;;;;3.27;2.97;;;;;;;;;;5071524;28;20300;-81
2022/04/30 13:14:41;;;;;;;3.43;3.13;;;;;;;;;;5067327;28;20241;-81
2022/04/30 13:17:11;;;;;;;4.43;3.13;;;;;;;;;;5069443;28;20253;-81
2022/04/30 13:19:44;;;;;;;3.50;3.20;;;;;;;;;;5067655;28;20270;-80
2022/04/30 13:22:13;;;;;;;5.33;3.37;;;;;;;;;;5069662;28;20222;-77
2022/04/30 13:24:41;;;;;;;4.93;3.50;;;;;;;;;;5067258;28;20242;-79
2022/04/30 13:27:09;;;;;;;5.03;3.37;;;;;;;;;;5072625;28;20218;-78
2022/04/30 13:29:37;;;;;;;4.10;3.37;;;;;;;;;;5068500;28;20198;-78
2022/04/30 13:32:06;;;;;;;3.80;3.40;;;;;;;;;;5064239;28;20281;-81
2022/04/30 13:34:35;;;;;;;3.50;3.20;;;;;;;;;;5069465;28;20262;-80
2022/04/30 13:37:03;;;;;;;3.33;3.03;;;;;;;;;;5068573;28;20254;-80
2022/04/30 13:39:32;;;;;;;3.67;3.37;;;;;;;;;;5070025;28;20360;-79
2022/04/30 13:42:00;;;;;;;6.17;3.50;;;;;;;;;;5071855;28;20785;-78
2022/04/30 13:44:28;;;;;;;4.17;3.87;;;;;;;;;;5062402;28;20234;-79
2022/04/30 13:46:56;;;;;;;3.50;3.20;;;;;;;;;;5075812;28;20309;-80
2022/04/30 13:49:24;;;;;;;5.37;3.07;;;;;;;;;;5066502;28;20206;-79
2022/04/30 13:51:53;;;;;;;3.17;2.87;;;;;;;;;;5067768;28;20205;-81
2022/04/30 13:54:21;;;;;;;4.73;3.77;;;;;;;;;;5075544;28;20233;-80
2022/04/30 13:56:49;;;;;;;3.70;3.40;;;;;;;;;;5071589;28;20228;-80
2022/04/30 13:59:19;;;;;;;4.80;3.23;;;;;;;;;;5073656;28;20229;-80
2022/04/30 14:01:47;;;;;;;4.20;3.10;;;;;;;;;;5063124;28;20234;-79
2022/04/30 14:04:15;;;;;;;4.10;3.53;;;;;;;;;;5062188;28;20222;-79
2022/04/30 14:06:44;;;;;;;5.13;2.80;;;;;;;;;;5069088;28;20639;-80
2022/04/30 14:09:13;;;;;;;5.20;2.70;;;;;;;;;;5067258;28;20230;-79
2022/04/30 14:11:41;;;;;;;4.07;3.00;;;;;;;;;;5066360;28;20229;-79
2022/04/30 14:16:54;;;;;;;2.93;2.60;;;;;;;;;;5068281;28;20294;-80
2022/04/30 14:19:22;;;;;;;5.67;3.20;;;;;;;;;;5065782;28;20640;-80
2022/04/30 14:21:50;;;;;;;4.00;2.90;;;;;;;;;;5068304;28;20640;-80
2022/04/30 14:24:20;;;;;;;3.60;2.90;;;;;;;;;;5063950;28;20285;-79
2022/04/30 14:26:54;;;;;;;4.80;2.97;;;;;;;;;;5065912;28;20566;-80
2022/04/30 14:29:22;;;;;;;5.00;3.03;;;;;;;;;;5073119;28;20270;-79
2022/04/30 14:31:50;;;;;;;5.20;3.30;;;;;;;;;;5070591;28;20258;-80
2022/04/30 14:34:18;;;;;;;6.40;3.60;;;;;;;;;;5070825;28;20645;-79
2022/04/30 14:36:46;;;;;;;5.27;3.37;;;;;;;;;;5067059;28;20644;-80
2022/04/30 14:39:14;;;;;;;7.10;3.97;;;;;;;;;;5068266;28;20740;-79
2022/04/30 14:41:44;;;;;;;4.23;3.50;;;;;;;;;;5069192;28;20261;-79
2022/04/30 14:44:12;;;;;;;9.03;5.40;;;;;;;;;;5064313;28;20279;-79
2022/04/30 14:46:40;;;;;;;6.90;4.43;;;;;;;;;;5059710;28;20266;-80
2022/04/30 14:49:08;;;;;;;6.50;4.40;;;;;;;;;;5068122;28;20199;-76
2022/04/30 14:51:36;;;;;;;6.13;4.87;;;;;;;;;;5067400;28;20241;-76
2022/04/30 14:54:05;;;;;;;6.40;4.63;;;;;;;;;;5070054;28;20229;-74
2022/04/30 14:56:33;;;;;;;6.90;5.07;;;;;;;;;;5067764;28;20214;-76
2022/04/30 14:59:04;;;;;;;6.73;4.60;;;;;;;;;;5070584;28;20234;-75
2022/04/30 15:01:32;;;;;;;5.33;4.57;;;;;;;;;;5070161;28;20282;-76
2022/04/30 15:04:00;;;;;;;4.70;4.07;;;;;;;;;;5061443;28;20234;-76
2022/04/30 15:06:28;;;;;;;4.10;3.57;;;;;;;;;;5069375;28;20228;-75
2022/04/30 15:08:57;;;;;;;3.37;3.07;;;;;;;;;;5067034;28;20202;-75
2022/04/30 15:11:25;;;;;;;3.07;2.87;;;;;;;;;;5065798;28;20638;-75
2022/04/30 15:13:53;;;;;;;5.23;3.00;;;;;;;;;;5061958;28;20230;-73
2022/04/30 15:16:23;;;;;;;6.17;3.13;;;;;;;;;;5060879;28;20254;-76
2022/04/30 15:18:52;;;;;;;5.90;3.23;;;;;;;;;;5063806;28;20207;-76
2022/04/30 15:21:19;;;;;;;7.67;2.87;;;;;;;;;;5074249;28;20233;-75
2022/04/30 15:23:47;;;;;;;3.73;2.63;;;;;;;;;;5068461;28;20261;-76
2022/04/30 15:26:15;;;;;;;6.70;3.40;;;;;;;;;;5064552;28;20705;-76
2022/04/30 15:28:43;;;;;;;4.03;2.90;;;;;;;;;;5068233;28;20233;-75
2022/04/30 15:31:35;;;;;;;4.10;3.70;;;;;;;;;;5065224;28;20198;-75
2022/04/30 15:34:03;;;;;;;3.90;3.47;;;;;;;;;;5060061;28;20195;-75
2022/04/30 15:36:31;;;;;;;4.60;3.70;;;;;;;;;;5064862;28;20250;-77